Wetterdaten: aktuell Dienstag, 17.10.2017 22:56
Datum Zeit Temp Htte Temp 10 cm Temp. Terr FeuchteHtte Luftdruck Niederschlag Wind Richtung Richtung T Niederschl Taupunkt Windchill
17.10.2017 22:56 11,6 C 10,2 C 11,0 C 79 % 1017 hPa 0,0 l/m 0,7 km/h (0 Bft) N 350 0 min 8,1 C 11,6 C
17.10.2017 21:56 12,5 C 10,6 C 12,1 C 78 % 1017 hPa 0,0 l/m 7,2 km/h (2 Bft) N-NW22.5 340 0 min 8,8 C 12,5 C
17.10.2017 20:56 13,7 C 11,6 C 13,3 C 75 % 1017 hPa 0,0 l/m 0,7 km/h (0 Bft) N 360 0 min 9,3 C 13,7 C
17.10.2017 19:56 15,2 C 12,2 C 14,9 C 72 % 1018 hPa 0,0 l/m 0,6 km/h (0 Bft) N 350 0 min 10,2 C 15,2 C
17.10.2017 18:56 17,2 C 13,2 C 17,0 C 69 % 1018 hPa 0,0 l/m 0,6 km/h (0 Bft) N 355 0 min 11,5 C 17,2 C
17.10.2017 17:56 19,6 C 14,6 C 20,5 C 66 % 1018 hPa 0,0 l/m 0,0 km/h (0 Bft) S-SW 195 0 min 13,1 C 19,6 C
17.10.2017 16:56 21,5 C 16,9 C 24,8 C 64 % 1018 hPa 0,0 l/m 0,0 km/h (0 Bft) S-SW 195 0 min 14,4 C 21,5 C
17.10.2017 15:56 21,8 C 18,1 C 26,0 C 66 % 1019 hPa 0,0 l/m 0,0 km/h (0 Bft) S45 175 0 min 15,2 C 21,8 C
17.10.2017 14:56 20,4 C 17,7 C 25,4 C 70 % 1019 hPa 0,0 l/m 0,0 km/h (0 Bft) S 190 0 min 14,7 C 20,4 C
17.10.2017 13:56 18,9 C 17,6 C 22,7 C 76 % 1020 hPa 0,0 l/m 0,4 km/h (0 Bft) S-SW 200 0 min 14,6 C 18,9 C
17.10.2017 12:56 17,4 C 17,3 C 20,0 C 84 % 1021 hPa 0,0 l/m 4,6 km/h (1 Bft) SO22.5 145 0 min 14,7 C 17,4 C
17.10.2017 11:56 14,6 C 15,3 C 16,7 C 90 % 1022 hPa 0,0 l/m 0,0 km/h (0 Bft) S 180 0 min 13,0 C 14,6 C
17.10.2017 10:56 12,0 C 13,9 C 12,7 C 94 % 1022 hPa 0,0 l/m 2,2 km/h (1 Bft) NW 320 0 min 11,1 C 12,0 C
17.10.2017 09:56 9,3 C 12,9 C 9,3 C 93 % 1022 hPa 0,0 l/m 0,0 km/h (0 Bft) NW 315 0 min 8,2 C 9,3 C
17.10.2017 08:56 8,0 C 9,4 C 7,6 C 90 % 1022 hPa 0,0 l/m 0,0 km/h (0 Bft) NW 315 0 min 6,5 C 8,0 C
17.10.2017 07:56 8,0 C 7,3 C 7,5 C 88 % 1022 hPa 0,0 l/m 0,4 km/h (0 Bft) N 355 0 min 6,1 C 8,0 C
17.10.2017 06:56 8,6 C 7,4 C 7,8 C 88 % 1022 hPa 0,0 l/m 0,0 km/h (0 Bft) N 355 0 min 6,7 C 8,6 C
17.10.2017 05:56 8,8 C 8,4 C 8,3 C 88 % 1022 hPa 0,0 l/m 0,0 km/h (0 Bft) N 350 0 min 6,9 C 8,8 C
17.10.2017 04:56 9,1 C 8,4 C 8,6 C 87 % 1022 hPa 0,0 l/m 7,0 km/h (2 Bft) NW22.5 315 0 min 7,1 C 8,2 C
17.10.2017 03:56 9,7 C 8,3 C 9,1 C 86 % 1022 hPa 0,0 l/m 0,0 km/h (0 Bft) N-NW 330 0 min 7,5 C 9,7 C
17.10.2017 02:57 10,3 C 9,0 C 9,6 C 85 % 1022 hPa 0,0 l/m 0,0 km/h (0 Bft) NW 325 0 min 7,9 C 10,3 C
17.10.2017 01:56 11,0 C 9,6 C 10,3 C 85 % 1022 hPa 0,0 l/m 0,0 km/h (0 Bft) N-NW 340 0 min 8,6 C 11,0 C
17.10.2017 00:56 11,7 C 10,3 C 11,0 C 84 % 1023 hPa 0,0 l/m 0,7 km/h (0 Bft) N-NW22.5 345 0 min 9,1 C 11,7 C
17.10.2017 00:01 12,2 C 10,9 C 11,7 C 84 % 1023 hPa 0,0 l/m 0,4 km/h (0 Bft) N22.5 355 0 min 9,6 C 12,2 C
_ Min-Zeit 08:16 07:06 08:01 16:36 18:31 - 00:06 - - - 07:56 08:16
Minimum _ 7,9 C 7,2 C 7,4 C 64 % 1017 hPa - 0,0 km/h (0 Bft) - - - 6,1 C 7,9 C
_ Max-Zeit 16:16 12:26 15:31 10:16 00:01 00:01 01:11 - - 00:01 15:56 16:16
Maximum _ 21,9 C 19,3 C 26,3 C 94 % 1023 hPa 0,0 l/m 7,4 km/h
N-NW (2 Bft)
- - 0 min 15,2 C 21,9 C
Durchschnitt _ 13,5 C 12,2 C 14,2 C 81 % 1020 hPa #0,0 l/m 0,9 km/h (0 Bft) N - #0 min. 10,2 C 13,5 C